sensor_id;sensor_type;location;lat;lon;timestamp;temperature;humidity
47546;DHT22;50104;52.002;4.688;2023-04-24T00:03:34;11.10;88.30
47546;DHT22;50104;52.002;4.688;2023-04-24T00:08:35;11.10;88.30
47546;DHT22;50104;52.002;4.688;2023-04-24T00:13:37;11.10;88.00
47546;DHT22;50104;52.002;4.688;2023-04-24T00:18:38;11.10;88.20
47546;DHT22;50104;52.002;4.688;2023-04-24T00:23:39;11.10;88.40
47546;DHT22;50104;52.002;4.688;2023-04-24T00:28:40;11.10;88.00
47546;DHT22;50104;52.002;4.688;2023-04-24T00:33:41;11.10;87.80
47546;DHT22;50104;52.002;4.688;2023-04-24T00:38:42;11.10;87.70
47546;DHT22;50104;52.002;4.688;2023-04-24T00:43:43;11.10;87.60
47546;DHT22;50104;52.002;4.688;2023-04-24T00:48:44;11.20;87.40
47546;DHT22;50104;52.002;4.688;2023-04-24T00:53:46;11.10;87.80
47546;DHT22;50104;52.002;4.688;2023-04-24T00:58:47;11.10;87.50
47546;DHT22;50104;52.002;4.688;2023-04-24T01:03:51;11.10;87.40
47546;DHT22;50104;52.002;4.688;2023-04-24T01:08:52;11.10;87.40
47546;DHT22;50104;52.002;4.688;2023-04-24T01:13:53;11.10;87.10
47546;DHT22;50104;52.002;4.688;2023-04-24T01:18:54;11.10;87.40
47546;DHT22;50104;52.002;4.688;2023-04-24T01:23:55;11.10;87.80
47546;DHT22;50104;52.002;4.688;2023-04-24T01:28:58;11.10;87.70
47546;DHT22;50104;52.002;4.688;2023-04-24T01:33:58;11.10;87.40
47546;DHT22;50104;52.002;4.688;2023-04-24T01:38:59;11.10;87.40
47546;DHT22;50104;52.002;4.688;2023-04-24T01:44:02;11.10;87.40
47546;DHT22;50104;52.002;4.688;2023-04-24T01:49:03;11.00;87.30
47546;DHT22;50104;52.002;4.688;2023-04-24T01:54:04;11.00;87.50
47546;DHT22;50104;52.002;4.688;2023-04-24T01:59:06;11.00;87.80
47546;DHT22;50104;52.002;4.688;2023-04-24T02:04:08;11.00;88.00
47546;DHT22;50104;52.002;4.688;2023-04-24T02:09:09;11.00;87.80
47546;DHT22;50104;52.002;4.688;2023-04-24T02:14:11;11.00;87.90
47546;DHT22;50104;52.002;4.688;2023-04-24T02:19:12;10.90;87.80
47546;DHT22;50104;52.002;4.688;2023-04-24T02:24:13;10.90;87.80
47546;DHT22;50104;52.002;4.688;2023-04-24T02:29:14;10.90;88.00
47546;DHT22;50104;52.002;4.688;2023-04-24T02:34:15;10.90;88.00
47546;DHT22;50104;52.002;4.688;2023-04-24T02:39:16;10.90;87.80
47546;DHT22;50104;52.002;4.688;2023-04-24T02:44:17;10.90;87.90
47546;DHT22;50104;52.002;4.688;2023-04-24T02:49:18;10.90;87.80
47546;DHT22;50104;52.002;4.688;2023-04-24T02:54:19;10.90;87.80
47546;DHT22;50104;52.002;4.688;2023-04-24T02:59:20;10.90;87.80
47546;DHT22;50104;52.002;4.688;2023-04-24T03:04:21;10.90;87.70
47546;DHT22;50104;52.002;4.688;2023-04-24T03:09:23;10.80;87.70
47546;DHT22;50104;52.002;4.688;2023-04-24T03:14:24;10.80;87.70
47546;DHT22;50104;52.002;4.688;2023-04-24T03:19:25;10.80;87.90
47546;DHT22;50104;52.002;4.688;2023-04-24T03:24:27;10.80;87.80
47546;DHT22;50104;52.002;4.688;2023-04-24T03:29:28;10.70;87.80
47546;DHT22;50104;52.002;4.688;2023-04-24T03:34:29;10.70;87.80
47546;DHT22;50104;52.002;4.688;2023-04-24T03:39:31;10.70;87.70
47546;DHT22;50104;52.002;4.688;2023-04-24T03:44:32;10.60;87.80
47546;DHT22;50104;52.002;4.688;2023-04-24T03:49:33;10.60;87.90
47546;DHT22;50104;52.002;4.688;2023-04-24T03:54:34;10.60;88.20
47546;DHT22;50104;52.002;4.688;2023-04-24T03:59:35;10.60;88.00
47546;DHT22;50104;52.002;4.688;2023-04-24T04:04:35;10.60;88.00
47546;DHT22;50104;52.002;4.688;2023-04-24T04:09:36;10.60;87.90
47546;DHT22;50104;52.002;4.688;2023-04-24T04:14:37;10.60;87.70
47546;DHT22;50104;52.002;4.688;2023-04-24T04:19:38;10.60;87.60
47546;DHT22;50104;52.002;4.688;2023-04-24T04:24:39;10.60;87.40
47546;DHT22;50104;52.002;4.688;2023-04-24T04:29:41;10.50;87.40
47546;DHT22;50104;52.002;4.688;2023-04-24T04:34:42;10.50;87.30
47546;DHT22;50104;52.002;4.688;2023-04-24T04:39:45;10.50;87.30
47546;DHT22;50104;52.002;4.688;2023-04-24T04:44:46;10.50;87.30
47546;DHT22;50104;52.002;4.688;2023-04-24T04:49:47;10.50;87.40
47546;DHT22;50104;52.002;4.688;2023-04-24T04:54:48;10.50;87.30
47546;DHT22;50104;52.002;4.688;2023-04-24T04:59:49;10.50;87.10
47546;DHT22;50104;52.002;4.688;2023-04-24T05:04:50;10.50;87.10
47546;DHT22;50104;52.002;4.688;2023-04-24T05:09:51;10.50;87.70
47546;DHT22;50104;52.002;4.688;2023-04-24T05:14:52;10.50;88.20
47546;DHT22;50104;52.002;4.688;2023-04-24T05:19:54;10.50;88.50
47546;DHT22;50104;52.002;4.688;2023-04-24T05:24:55;10.50;88.60
47546;DHT22;50104;52.002;4.688;2023-04-24T05:29:56;10.50;88.90
47546;DHT22;50104;52.002;4.688;2023-04-24T05:34:57;10.50;88.60
47546;DHT22;50104;52.002;4.688;2023-04-24T05:39:58;10.50;88.60
47546;DHT22;50104;52.002;4.688;2023-04-24T05:44:59;10.50;88.70
47546;DHT22;50104;52.002;4.688;2023-04-24T05:50:00;10.40;88.50
47546;DHT22;50104;52.002;4.688;2023-04-24T05:55:00;10.40;88.30
47546;DHT22;50104;52.002;4.688;2023-04-24T06:00:01;10.40;88.50
47546;DHT22;50104;52.002;4.688;2023-04-24T06:05:04;10.40;88.50
47546;DHT22;50104;52.002;4.688;2023-04-24T06:10:06;10.30;88.20
47546;DHT22;50104;52.002;4.688;2023-04-24T06:15:07;10.30;88.00
47546;DHT22;50104;52.002;4.688;2023-04-24T06:20:10;10.30;88.10
47546;DHT22;50104;52.002;4.688;2023-04-24T06:25:11;10.30;88.10
47546;DHT22;50104;52.002;4.688;2023-04-24T06:30:12;10.20;88.20
47546;DHT22;50104;52.002;4.688;2023-04-24T06:35:14;10.20;88.30
47546;DHT22;50104;52.002;4.688;2023-04-24T06:40:14;10.20;88.40
47546;DHT22;50104;52.002;4.688;2023-04-24T06:45:15;10.20;88.50
47546;DHT22;50104;52.002;4.688;2023-04-24T06:50:17;10.10;88.60
47546;DHT22;50104;52.002;4.688;2023-04-24T06:55:18;10.10;88.40
47546;DHT22;50104;52.002;4.688;2023-04-24T07:00:19;10.10;88.50
47546;DHT22;50104;52.002;4.688;2023-04-24T07:05:20;10.10;88.60
47546;DHT22;50104;52.002;4.688;2023-04-24T07:10:21;10.10;88.60
47546;DHT22;50104;52.002;4.688;2023-04-24T07:15:22;10.10;88.60
47546;DHT22;50104;52.002;4.688;2023-04-24T07:20:24;10.10;88.70
47546;DHT22;50104;52.002;4.688;2023-04-24T07:25:25;10.00;88.70
47546;DHT22;50104;52.002;4.688;2023-04-24T07:30:26;10.00;88.60
47546;DHT22;50104;52.002;4.688;2023-04-24T07:35:29;10.00;88.80
47546;DHT22;50104;52.002;4.688;2023-04-24T07:40:30;10.00;88.60
47546;DHT22;50104;52.002;4.688;2023-04-24T07:45:31;10.00;88.60
47546;DHT22;50104;52.002;4.688;2023-04-24T07:50:34;10.00;88.50
47546;DHT22;50104;52.002;4.688;2023-04-24T07:55:37;10.10;88.40
47546;DHT22;50104;52.002;4.688;2023-04-24T08:00:38;10.00;88.40
47546;DHT22;50104;52.002;4.688;2023-04-24T08:05:39;10.10;88.30
47546;DHT22;50104;52.002;4.688;2023-04-24T08:10:41;10.10;87.90
47546;DHT22;50104;52.002;4.688;2023-04-24T08:15:42;10.10;88.00
47546;DHT22;50104;52.002;4.688;2023-04-24T08:20:43;10.10;87.80
47546;DHT22;50104;52.002;4.688;2023-04-24T08:25:44;10.00;87.70
47546;DHT22;50104;52.002;4.688;2023-04-24T08:30:45;10.00;87.40
47546;DHT22;50104;52.002;4.688;2023-04-24T08:35:47;10.00;87.30
47546;DHT22;50104;52.002;4.688;2023-04-24T08:40:49;10.00;87.10
47546;DHT22;50104;52.002;4.688;2023-04-24T08:45:50;10.00;87.10
47546;DHT22;50104;52.002;4.688;2023-04-24T08:50:51;10.00;86.80
47546;DHT22;50104;52.002;4.688;2023-04-24T08:55:54;10.00;86.50
47546;DHT22;50104;52.002;4.688;2023-04-24T09:00:57;10.10;86.30
47546;DHT22;50104;52.002;4.688;2023-04-24T09:05:58;10.10;85.80
47546;DHT22;50104;52.002;4.688;2023-04-24T09:11:00;10.10;85.50
47546;DHT22;50104;52.002;4.688;2023-04-24T09:16:03;10.10;85.30
47546;DHT22;50104;52.002;4.688;2023-04-24T09:21:07;10.10;85.20
47546;DHT22;50104;52.002;4.688;2023-04-24T09:26:10;10.10;85.20
47546;DHT22;50104;52.002;4.688;2023-04-24T09:31:19;10.20;85.00
47546;DHT22;50104;52.002;4.688;2023-04-24T09:36:48;10.20;84.80
47546;DHT22;50104;52.002;4.688;2023-04-24T09:41:58;10.20;84.50
47546;DHT22;50104;52.002;4.688;2023-04-24T09:47:01;10.20;84.50
47546;DHT22;50104;52.002;4.688;2023-04-24T09:52:06;10.30;84.50
47546;DHT22;50104;52.002;4.688;2023-04-24T09:57:08;10.30;84.50
47546;DHT22;50104;52.002;4.688;2023-04-24T10:02:19;10.40;84.40
47546;DHT22;50104;52.002;4.688;2023-04-24T10:07:20;10.40;84.70
47546;DHT22;50104;52.002;4.688;2023-04-24T10:12:23;10.50;84.50
47546;DHT22;50104;52.002;4.688;2023-04-24T10:17:25;10.60;83.90
47546;DHT22;50104;52.002;4.688;2023-04-24T10:22:28;10.60;83.70
47546;DHT22;50104;52.002;4.688;2023-04-24T10:27:32;10.60;83.70
47546;DHT22;50104;52.002;4.688;2023-04-24T10:32:33;10.60;83.90
47546;DHT22;50104;52.002;4.688;2023-04-24T10:37:42;10.60;83.90
47546;DHT22;50104;52.002;4.688;2023-04-24T10:42:49;10.70;83.90
47546;DHT22;50104;52.002;4.688;2023-04-24T10:48:04;10.70;83.70
47546;DHT22;50104;52.002;4.688;2023-04-24T10:53:30;10.80;83.40
47546;DHT22;50104;52.002;4.688;2023-04-24T11:03:51;11.00;83.70
47546;DHT22;50104;52.002;4.688;2023-04-24T11:09:10;11.10;83.80
47546;DHT22;50104;52.002;4.688;2023-04-24T11:14:16;11.20;83.30
47546;DHT22;50104;52.002;4.688;2023-04-24T11:19:25;11.20;83.10
47546;DHT22;50104;52.002;4.688;2023-04-24T11:35:01;11.30;83.30
47546;DHT22;50104;52.002;4.688;2023-04-24T11:40:18;11.50;83.20
47546;DHT22;50104;52.002;4.688;2023-04-24T11:45:25;11.60;83.70
47546;DHT22;50104;52.002;4.688;2023-04-24T11:50:28;11.80;83.50
47546;DHT22;50104;52.002;4.688;2023-04-24T11:55:30;11.90;82.60
47546;DHT22;50104;52.002;4.688;2023-04-24T12:00:32;12.10;82.00
47546;DHT22;50104;52.002;4.688;2023-04-24T12:05:36;12.20;82.30
47546;DHT22;50104;52.002;4.688;2023-04-24T12:10:37;12.30;81.80
47546;DHT22;50104;52.002;4.688;2023-04-24T12:15:39;12.50;80.90
47546;DHT22;50104;52.002;4.688;2023-04-24T12:20:41;12.60;81.00
47546;DHT22;50104;52.002;4.688;2023-04-24T12:25:42;12.60;80.30
47546;DHT22;50104;52.002;4.688;2023-04-24T12:31:02;12.70;80.00
47546;DHT22;50104;52.002;4.688;2023-04-24T12:36:03;12.80;80.00
47546;DHT22;50104;52.002;4.688;2023-04-24T12:41:10;12.90;78.70
47546;DHT22;50104;52.002;4.688;2023-04-24T12:46:12;12.90;78.20
47546;DHT22;50104;52.002;4.688;2023-04-24T12:51:13;12.80;78.00
47546;DHT22;50104;52.002;4.688;2023-04-24T12:56:15;12.80;78.60
47546;DHT22;50104;52.002;4.688;2023-04-24T13:01:17;12.80;78.80
47546;DHT22;50104;52.002;4.688;2023-04-24T13:06:18;12.70;77.90
47546;DHT22;50104;52.002;4.688;2023-04-24T13:11:19;12.80;78.80
47546;DHT22;50104;52.002;4.688;2023-04-24T13:16:20;12.80;78.50
47546;DHT22;50104;52.002;4.688;2023-04-24T13:21:21;12.90;76.90
47546;DHT22;50104;52.002;4.688;2023-04-24T13:26:21;12.90;76.60
47546;DHT22;50104;52.002;4.688;2023-04-24T13:31:22;12.90;76.00
47546;DHT22;50104;52.002;4.688;2023-04-24T13:36:23;13.00;76.80
47546;DHT22;50104;52.002;4.688;2023-04-24T13:41:24;13.10;77.30
47546;DHT22;50104;52.002;4.688;2023-04-24T13:46:25;13.20;77.60
47546;DHT22;50104;52.002;4.688;2023-04-24T13:51:26;13.30;77.20
47546;DHT22;50104;52.002;4.688;2023-04-24T13:56:27;13.40;75.90
47546;DHT22;50104;52.002;4.688;2023-04-24T14:01:28;13.50;77.50
47546;DHT22;50104;52.002;4.688;2023-04-24T14:06:29;13.60;77.20
47546;DHT22;50104;52.002;4.688;2023-04-24T14:11:30;13.70;75.80
47546;DHT22;50104;52.002;4.688;2023-04-24T14:16:31;13.80;77.50
47546;DHT22;50104;52.002;4.688;2023-04-24T14:21:32;13.90;77.10
47546;DHT22;50104;52.002;4.688;2023-04-24T14:26:33;14.00;76.90
47546;DHT22;50104;52.002;4.688;2023-04-24T14:31:35;14.00;76.00
47546;DHT22;50104;52.002;4.688;2023-04-24T14:36:36;14.00;75.80
47546;DHT22;50104;52.002;4.688;2023-04-24T14:41:36;13.80;74.80
47546;DHT22;50104;52.002;4.688;2023-04-24T14:46:39;13.70;75.10
47546;DHT22;50104;52.002;4.688;2023-04-24T14:51:40;13.50;75.90
47546;DHT22;50104;52.002;4.688;2023-04-24T14:56:41;13.40;76.50
47546;DHT22;50104;52.002;4.688;2023-04-24T15:01:44;13.30;76.30
47546;DHT22;50104;52.002;4.688;2023-04-24T15:06:45;13.30;76.30
47546;DHT22;50104;52.002;4.688;2023-04-24T15:11:46;13.20;76.40
47546;DHT22;50104;52.002;4.688;2023-04-24T15:16:48;13.20;76.00
47546;DHT22;50104;52.002;4.688;2023-04-24T15:21:48;13.20;76.30
47546;DHT22;50104;52.002;4.688;2023-04-24T15:26:50;13.20;76.90
47546;DHT22;50104;52.002;4.688;2023-04-24T15:31:50;13.10;76.10
47546;DHT22;50104;52.002;4.688;2023-04-24T15:36:51;13.10;75.60
47546;DHT22;50104;52.002;4.688;2023-04-24T15:41:52;13.00;76.40
47546;DHT22;50104;52.002;4.688;2023-04-24T15:47:00;13.00;76.40
47546;DHT22;50104;52.002;4.688;2023-04-24T15:52:02;12.90;76.70
47546;DHT22;50104;52.002;4.688;2023-04-24T15:57:03;12.90;77.00
47546;DHT22;50104;52.002;4.688;2023-04-24T16:02:04;12.90;76.90
47546;DHT22;50104;52.002;4.688;2023-04-24T16:07:05;12.90;77.50
47546;DHT22;50104;52.002;4.688;2023-04-24T16:12:07;13.00;76.50
47546;DHT22;50104;52.002;4.688;2023-04-24T16:17:09;13.00;76.60
47546;DHT22;50104;52.002;4.688;2023-04-24T16:22:10;13.10;76.30
47546;DHT22;50104;52.002;4.688;2023-04-24T16:27:11;13.20;75.90
47546;DHT22;50104;52.002;4.688;2023-04-24T16:32:12;13.30;75.50
47546;DHT22;50104;52.002;4.688;2023-04-24T16:37:13;13.30;76.20
47546;DHT22;50104;52.002;4.688;2023-04-24T16:42:14;13.30;75.70
47546;DHT22;50104;52.002;4.688;2023-04-24T16:47:16;13.40;76.20
47546;DHT22;50104;52.002;4.688;2023-04-24T16:52:17;13.30;74.60
47546;DHT22;50104;52.002;4.688;2023-04-24T16:57:18;13.30;75.10
47546;DHT22;50104;52.002;4.688;2023-04-24T17:02:19;13.30;75.10
47546;DHT22;50104;52.002;4.688;2023-04-24T17:07:20;13.20;73.70
47546;DHT22;50104;52.002;4.688;2023-04-24T17:12:20;13.10;74.30
47546;DHT22;50104;52.002;4.688;2023-04-24T17:17:21;12.90;72.90
47546;DHT22;50104;52.002;4.688;2023-04-24T17:22:23;12.80;73.00
47546;DHT22;50104;52.002;4.688;2023-04-24T17:27:24;12.70;73.80
47546;DHT22;50104;52.002;4.688;2023-04-24T17:32:25;12.60;73.50
47546;DHT22;50104;52.002;4.688;2023-04-24T17:37:26;12.50;73.70
47546;DHT22;50104;52.002;4.688;2023-04-24T17:42:27;12.40;73.40
47546;DHT22;50104;52.002;4.688;2023-04-24T17:47:29;12.30;74.10
47546;DHT22;50104;52.002;4.688;2023-04-24T17:52:30;12.20;73.90
47546;DHT22;50104;52.002;4.688;2023-04-24T17:57:31;12.10;73.90
47546;DHT22;50104;52.002;4.688;2023-04-24T18:02:31;12.00;73.90
47546;DHT22;50104;52.002;4.688;2023-04-24T18:07:33;11.90;74.30
47546;DHT22;50104;52.002;4.688;2023-04-24T18:12:34;11.80;74.50
47546;DHT22;50104;52.002;4.688;2023-04-24T18:17:35;11.80;75.10
47546;DHT22;50104;52.002;4.688;2023-04-24T18:22:36;11.70;75.20
47546;DHT22;50104;52.002;4.688;2023-04-24T18:27:38;11.60;75.40
47546;DHT22;50104;52.002;4.688;2023-04-24T18:32:39;11.50;74.80
47546;DHT22;50104;52.002;4.688;2023-04-24T18:37:40;11.40;74.70
47546;DHT22;50104;52.002;4.688;2023-04-24T18:42:42;11.30;74.90
47546;DHT22;50104;52.002;4.688;2023-04-24T18:47:44;11.20;75.20
47546;DHT22;50104;52.002;4.688;2023-04-24T18:52:44;11.10;75.40
47546;DHT22;50104;52.002;4.688;2023-04-24T18:57:45;11.00;75.50
47546;DHT22;50104;52.002;4.688;2023-04-24T19:02:46;10.90;75.90
47546;DHT22;50104;52.002;4.688;2023-04-24T19:07:47;10.80;76.20
47546;DHT22;50104;52.002;4.688;2023-04-24T19:12:48;10.70;76.30
47546;DHT22;50104;52.002;4.688;2023-04-24T19:17:55;10.70;76.90
47546;DHT22;50104;52.002;4.688;2023-04-24T19:22:56;10.60;77.10
47546;DHT22;50104;52.002;4.688;2023-04-24T19:27:57;10.60;77.10
47546;DHT22;50104;52.002;4.688;2023-04-24T19:32:59;10.60;77.30
47546;DHT22;50104;52.002;4.688;2023-04-24T19:38:01;10.50;77.40
47546;DHT22;50104;52.002;4.688;2023-04-24T19:43:02;10.50;77.50
47546;DHT22;50104;52.002;4.688;2023-04-24T19:48:03;10.40;78.00
47546;DHT22;50104;52.002;4.688;2023-04-24T19:53:04;10.40;78.10
47546;DHT22;50104;52.002;4.688;2023-04-24T19:58:06;10.30;78.10
47546;DHT22;50104;52.002;4.688;2023-04-24T20:03:07;10.30;78.30
47546;DHT22;50104;52.002;4.688;2023-04-24T20:08:07;10.30;78.30
47546;DHT22;50104;52.002;4.688;2023-04-24T20:13:10;10.30;78.40
47546;DHT22;50104;52.002;4.688;2023-04-24T20:18:11;10.20;78.60
47546;DHT22;50104;52.002;4.688;2023-04-24T20:23:13;10.20;78.80
47546;DHT22;50104;52.002;4.688;2023-04-24T20:28:15;10.20;78.80
47546;DHT22;50104;52.002;4.688;2023-04-24T20:33:16;10.10;79.00
47546;DHT22;50104;52.002;4.688;2023-04-24T20:38:17;10.10;78.90
47546;DHT22;50104;52.002;4.688;2023-04-24T20:43:18;10.10;78.90
47546;DHT22;50104;52.002;4.688;2023-04-24T20:48:20;10.00;78.80
47546;DHT22;50104;52.002;4.688;2023-04-24T20:53:20;10.00;78.70
47546;DHT22;50104;52.002;4.688;2023-04-24T20:58:21;9.90;78.60
47546;DHT22;50104;52.002;4.688;2023-04-24T21:03:24;9.90;78.50
47546;DHT22;50104;52.002;4.688;2023-04-24T21:08:25;9.80;78.60
47546;DHT22;50104;52.002;4.688;2023-04-24T21:13:26;9.70;78.60
47546;DHT22;50104;52.002;4.688;2023-04-24T21:18:26;9.60;78.80
47546;DHT22;50104;52.002;4.688;2023-04-24T21:23:27;9.60;78.90
47546;DHT22;50104;52.002;4.688;2023-04-24T21:28:29;9.50;78.90
47546;DHT22;50104;52.002;4.688;2023-04-24T21:33:30;9.40;79.00
47546;DHT22;50104;52.002;4.688;2023-04-24T21:38:31;9.40;79.10
47546;DHT22;50104;52.002;4.688;2023-04-24T21:43:32;9.30;79.30
47546;DHT22;50104;52.002;4.688;2023-04-24T21:48:33;9.20;79.40
47546;DHT22;50104;52.002;4.688;2023-04-24T21:53:33;9.20;79.50
47546;DHT22;50104;52.002;4.688;2023-04-24T21:58:35;9.10;79.60
47546;DHT22;50104;52.002;4.688;2023-04-24T22:03:36;9.00;79.50
47546;DHT22;50104;52.002;4.688;2023-04-24T22:08:37;9.00;79.60
47546;DHT22;50104;52.002;4.688;2023-04-24T22:13:38;8.90;79.70
47546;DHT22;50104;52.002;4.688;2023-04-24T22:18:39;8.90;79.80
47546;DHT22;50104;52.002;4.688;2023-04-24T22:23:43;8.80;80.10
47546;DHT22;50104;52.002;4.688;2023-04-24T22:28:45;8.70;80.00
47546;DHT22;50104;52.002;4.688;2023-04-24T22:33:46;8.70;80.00
47546;DHT22;50104;52.002;4.688;2023-04-24T22:38:47;8.60;80.00
47546;DHT22;50104;52.002;4.688;2023-04-24T22:43:48;8.60;80.10
47546;DHT22;50104;52.002;4.688;2023-04-24T22:48:49;8.50;80.30
47546;DHT22;50104;52.002;4.688;2023-04-24T22:53:50;8.40;80.20
47546;DHT22;50104;52.002;4.688;2023-04-24T22:58:51;8.40;80.20
47546;DHT22;50104;52.002;4.688;2023-04-24T23:03:52;8.30;80.10
47546;DHT22;50104;52.002;4.688;2023-04-24T23:08:53;8.30;80.10
47546;DHT22;50104;52.002;4.688;2023-04-24T23:13:54;8.20;80.10
47546;DHT22;50104;52.002;4.688;2023-04-24T23:18:56;8.20;80.00
47546;DHT22;50104;52.002;4.688;2023-04-24T23:23:57;8.10;80.10
47546;DHT22;50104;52.002;4.688;2023-04-24T23:28:57;8.10;79.90
47546;DHT22;50104;52.002;4.688;2023-04-24T23:33:58;8.00;80.00
47546;DHT22;50104;52.002;4.688;2023-04-24T23:39:01;8.00;80.20
47546;DHT22;50104;52.002;4.688;2023-04-24T23:44:04;7.90;79.40
47546;DHT22;50104;52.002;4.688;2023-04-24T23:49:05;7.90;80.20
47546;DHT22;50104;52.002;4.688;2023-04-24T23:54:06;7.80;80.30
47546;DHT22;50104;52.002;4.688;2023-04-24T23:59:07;7.80;80.10
